sensor_id;sensor_type;location;lat;lon;timestamp;temperature;humidity
36710;DHT22;22694;51.040;3.684;2022-08-21T00:00:51;20.20;79.20
36710;DHT22;22694;51.040;3.684;2022-08-21T00:03:17;20.20;79.30
36710;DHT22;22694;51.040;3.684;2022-08-21T00:05:46;20.10;79.20
36710;DHT22;22694;51.040;3.684;2022-08-21T00:08:12;20.20;79.30
36710;DHT22;22694;51.040;3.684;2022-08-21T00:10:40;20.10;79.20
36710;DHT22;22694;51.040;3.684;2022-08-21T00:13:06;20.10;79.30
36710;DHT22;22694;51.040;3.684;2022-08-21T00:15:34;20.10;79.30
36710;DHT22;22694;51.040;3.684;2022-08-21T00:18:00;20.10;79.40
36710;DHT22;22694;51.040;3.684;2022-08-21T00:20:26;20.10;79.40
36710;DHT22;22694;51.040;3.684;2022-08-21T00:22:52;20.10;79.40
36710;DHT22;22694;51.040;3.684;2022-08-21T00:25:20;20.00;79.40
36710;DHT22;22694;51.040;3.684;2022-08-21T00:27:45;20.00;79.30
36710;DHT22;22694;51.040;3.684;2022-08-21T00:30:14;20.00;79.40
36710;DHT22;22694;51.040;3.684;2022-08-21T00:32:40;20.00;79.40
36710;DHT22;22694;51.040;3.684;2022-08-21T00:35:10;20.00;79.40
36710;DHT22;22694;51.040;3.684;2022-08-21T00:37:37;20.00;79.50
36710;DHT22;22694;51.040;3.684;2022-08-21T00:40:05;20.00;79.50
36710;DHT22;22694;51.040;3.684;2022-08-21T00:42:31;20.00;79.60
36710;DHT22;22694;51.040;3.684;2022-08-21T00:44:56;20.00;79.70
36710;DHT22;22694;51.040;3.684;2022-08-21T00:47:22;19.90;79.60
36710;DHT22;22694;51.040;3.684;2022-08-21T00:49:48;19.90;79.60
36710;DHT22;22694;51.040;3.684;2022-08-21T00:52:18;19.90;79.70
36710;DHT22;22694;51.040;3.684;2022-08-21T00:54:47;19.90;79.70
36710;DHT22;22694;51.040;3.684;2022-08-21T00:57:17;19.80;79.70
36710;DHT22;22694;51.040;3.684;2022-08-21T00:59:48;19.90;79.70
36710;DHT22;22694;51.040;3.684;2022-08-21T01:02:15;19.80;79.70
36710;DHT22;22694;51.040;3.684;2022-08-21T01:04:41;19.80;79.80
36710;DHT22;22694;51.040;3.684;2022-08-21T01:07:08;19.80;80.40
36710;DHT22;22694;51.040;3.684;2022-08-21T01:09:34;19.90;79.90
36710;DHT22;22694;51.040;3.684;2022-08-21T01:12:00;19.70;79.80
36710;DHT22;22694;51.040;3.684;2022-08-21T01:14:25;19.70;79.80
36710;DHT22;22694;51.040;3.684;2022-08-21T01:16:52;19.70;79.80
36710;DHT22;22694;51.040;3.684;2022-08-21T01:19:20;19.70;79.90
36710;DHT22;22694;51.040;3.684;2022-08-21T01:21:46;19.70;79.80
36710;DHT22;22694;51.040;3.684;2022-08-21T01:24:12;19.70;79.90
36710;DHT22;22694;51.040;3.684;2022-08-21T01:26:39;19.70;79.90
36710;DHT22;22694;51.040;3.684;2022-08-21T01:29:14;19.70;79.90
36710;DHT22;22694;51.040;3.684;2022-08-21T01:31:41;19.70;80.00
36710;DHT22;22694;51.040;3.684;2022-08-21T01:34:09;19.60;79.90
36710;DHT22;22694;51.040;3.684;2022-08-21T01:36:35;19.60;79.90
36710;DHT22;22694;51.040;3.684;2022-08-21T01:39:01;19.60;80.00
36710;DHT22;22694;51.040;3.684;2022-08-21T01:41:27;19.60;80.00
36710;DHT22;22694;51.040;3.684;2022-08-21T01:43:52;19.60;80.10
36710;DHT22;22694;51.040;3.684;2022-08-21T01:46:19;19.50;80.00
36710;DHT22;22694;51.040;3.684;2022-08-21T01:48:45;19.50;80.10
36710;DHT22;22694;51.040;3.684;2022-08-21T01:51:11;19.50;80.10
36710;DHT22;22694;51.040;3.684;2022-08-21T01:53:37;19.50;80.10
36710;DHT22;22694;51.040;3.684;2022-08-21T01:56:06;19.50;80.10
36710;DHT22;22694;51.040;3.684;2022-08-21T01:58:31;19.50;80.10
36710;DHT22;22694;51.040;3.684;2022-08-21T02:00:58;19.50;80.10
36710;DHT22;22694;51.040;3.684;2022-08-21T02:03:24;19.50;80.10
36710;DHT22;22694;51.040;3.684;2022-08-21T02:05:49;19.50;80.00
36710;DHT22;22694;51.040;3.684;2022-08-21T02:08:15;19.50;80.00
36710;DHT22;22694;51.040;3.684;2022-08-21T02:10:41;19.50;80.00
36710;DHT22;22694;51.040;3.684;2022-08-21T02:13:06;19.50;80.10
36710;DHT22;22694;51.040;3.684;2022-08-21T02:15:32;19.50;80.10
36710;DHT22;22694;51.040;3.684;2022-08-21T02:17:59;19.50;80.20
36710;DHT22;22694;51.040;3.684;2022-08-21T02:20:32;19.40;80.20
36710;DHT22;22694;51.040;3.684;2022-08-21T02:22:58;19.40;80.30
36710;DHT22;22694;51.040;3.684;2022-08-21T02:25:25;19.40;80.30
36710;DHT22;22694;51.040;3.684;2022-08-21T02:27:52;19.40;80.40
36710;DHT22;22694;51.040;3.684;2022-08-21T02:30:23;19.40;80.40
36710;DHT22;22694;51.040;3.684;2022-08-21T02:32:49;19.40;80.40
36710;DHT22;22694;51.040;3.684;2022-08-21T02:35:15;19.30;80.40
36710;DHT22;22694;51.040;3.684;2022-08-21T02:38:00;19.30;80.40
36710;DHT22;22694;51.040;3.684;2022-08-21T02:40:32;19.30;80.40
36710;DHT22;22694;51.040;3.684;2022-08-21T02:42:58;19.30;80.40
36710;DHT22;22694;51.040;3.684;2022-08-21T02:45:27;19.30;80.50
36710;DHT22;22694;51.040;3.684;2022-08-21T02:48:00;19.20;80.40
36710;DHT22;22694;51.040;3.684;2022-08-21T02:50:32;19.20;80.50
36710;DHT22;22694;51.040;3.684;2022-08-21T02:52:59;19.20;80.50
36710;DHT22;22694;51.040;3.684;2022-08-21T02:55:28;19.20;81.10
36710;DHT22;22694;51.040;3.684;2022-08-21T02:57:55;19.20;80.50
36710;DHT22;22694;51.040;3.684;2022-08-21T03:00:23;19.20;80.60
36710;DHT22;22694;51.040;3.684;2022-08-21T03:02:49;19.20;80.60
36710;DHT22;22694;51.040;3.684;2022-08-21T03:05:15;19.20;80.70
36710;DHT22;22694;51.040;3.684;2022-08-21T03:07:43;19.20;80.70
36710;DHT22;22694;51.040;3.684;2022-08-21T03:10:09;19.20;80.80
36710;DHT22;22694;51.040;3.684;2022-08-21T03:12:35;19.10;81.30
36710;DHT22;22694;51.040;3.684;2022-08-21T03:15:03;19.10;81.30
36710;DHT22;22694;51.040;3.684;2022-08-21T03:17:29;19.10;80.70
36710;DHT22;22694;51.040;3.684;2022-08-21T03:19:55;19.10;80.80
36710;DHT22;22694;51.040;3.684;2022-08-21T03:22:20;19.10;80.80
36710;DHT22;22694;51.040;3.684;2022-08-21T03:24:46;19.10;80.80
36710;DHT22;22694;51.040;3.684;2022-08-21T03:27:11;19.10;80.80
36710;DHT22;22694;51.040;3.684;2022-08-21T03:29:40;19.10;80.80
36710;DHT22;22694;51.040;3.684;2022-08-21T03:32:06;19.00;81.10
36710;DHT22;22694;51.040;3.684;2022-08-21T03:34:35;19.00;80.80
36710;DHT22;22694;51.040;3.684;2022-08-21T03:37:02;19.00;80.80
36710;DHT22;22694;51.040;3.684;2022-08-21T03:39:29;19.00;80.90
36710;DHT22;22694;51.040;3.684;2022-08-21T03:41:54;19.00;80.90
36710;DHT22;22694;51.040;3.684;2022-08-21T03:44:20;19.00;80.90
36710;DHT22;22694;51.040;3.684;2022-08-21T03:46:45;19.00;81.00
36710;DHT22;22694;51.040;3.684;2022-08-21T03:49:11;19.00;81.00
36710;DHT22;22694;51.040;3.684;2022-08-21T03:51:37;19.00;81.00
36710;DHT22;22694;51.040;3.684;2022-08-21T03:54:03;18.90;81.00
36710;DHT22;22694;51.040;3.684;2022-08-21T03:56:29;19.00;81.10
36710;DHT22;22694;51.040;3.684;2022-08-21T03:58:55;18.90;81.00
36710;DHT22;22694;51.040;3.684;2022-08-21T04:01:21;18.90;81.00
36710;DHT22;22694;51.040;3.684;2022-08-21T04:03:46;18.90;81.70
36710;DHT22;22694;51.040;3.684;2022-08-21T04:06:12;18.90;81.10
36710;DHT22;22694;51.040;3.684;2022-08-21T04:08:38;18.90;81.10
36710;DHT22;22694;51.040;3.684;2022-08-21T04:11:04;18.90;81.10
36710;DHT22;22694;51.040;3.684;2022-08-21T04:13:31;18.90;81.20
36710;DHT22;22694;51.040;3.684;2022-08-21T04:15:56;18.80;81.10
36710;DHT22;22694;51.040;3.684;2022-08-21T04:18:24;18.80;81.20
36710;DHT22;22694;51.040;3.684;2022-08-21T04:20:51;18.80;81.20
36710;DHT22;22694;51.040;3.684;2022-08-21T04:23:19;18.80;81.20
36710;DHT22;22694;51.040;3.684;2022-08-21T04:25:45;18.80;81.20
36710;DHT22;22694;51.040;3.684;2022-08-21T04:28:10;18.80;81.20
36710;DHT22;22694;51.040;3.684;2022-08-21T04:30:37;18.80;81.20
36710;DHT22;22694;51.040;3.684;2022-08-21T04:33:02;18.80;81.20
36710;DHT22;22694;51.040;3.684;2022-08-21T04:35:29;18.80;81.30
36710;DHT22;22694;51.040;3.684;2022-08-21T04:37:56;18.80;81.30
36710;DHT22;22694;51.040;3.684;2022-08-21T04:40:23;18.80;81.40
36710;DHT22;22694;51.040;3.684;2022-08-21T04:43:03;18.80;81.40
36710;DHT22;22694;51.040;3.684;2022-08-21T04:45:37;18.80;81.40
36710;DHT22;22694;51.040;3.684;2022-08-21T04:48:05;18.70;81.40
36710;DHT22;22694;51.040;3.684;2022-08-21T04:50:38;18.70;81.40
36710;DHT22;22694;51.040;3.684;2022-08-21T04:53:07;18.70;81.40
36710;DHT22;22694;51.040;3.684;2022-08-21T04:55:33;18.70;81.50
36710;DHT22;22694;51.040;3.684;2022-08-21T04:58:00;18.70;81.50
36710;DHT22;22694;51.040;3.684;2022-08-21T05:00:26;18.70;81.60
36710;DHT22;22694;51.040;3.684;2022-08-21T05:02:53;18.70;81.60
36710;DHT22;22694;51.040;3.684;2022-08-21T05:05:22;18.70;81.60
36710;DHT22;22694;51.040;3.684;2022-08-21T05:07:48;18.70;81.60
36710;DHT22;22694;51.040;3.684;2022-08-21T05:10:14;18.70;81.60
36710;DHT22;22694;51.040;3.684;2022-08-21T05:12:41;18.60;81.60
36710;DHT22;22694;51.040;3.684;2022-08-21T05:15:09;18.60;81.60
36710;DHT22;22694;51.040;3.684;2022-08-21T05:17:35;18.60;81.60
36710;DHT22;22694;51.040;3.684;2022-08-21T05:20:00;18.60;81.60
36710;DHT22;22694;51.040;3.684;2022-08-21T05:22:27;18.60;81.60
36710;DHT22;22694;51.040;3.684;2022-08-21T05:24:52;18.60;81.60
36710;DHT22;22694;51.040;3.684;2022-08-21T05:27:18;18.60;81.70
36710;DHT22;22694;51.040;3.684;2022-08-21T05:29:43;18.60;81.70
36710;DHT22;22694;51.040;3.684;2022-08-21T05:32:11;18.60;81.70
36710;DHT22;22694;51.040;3.684;2022-08-21T05:34:37;18.60;81.70
36710;DHT22;22694;51.040;3.684;2022-08-21T05:37:03;18.60;81.70
36710;DHT22;22694;51.040;3.684;2022-08-21T05:39:28;18.50;81.70
36710;DHT22;22694;51.040;3.684;2022-08-21T05:41:54;18.60;81.80
36710;DHT22;22694;51.040;3.684;2022-08-21T05:44:19;18.50;81.80
36710;DHT22;22694;51.040;3.684;2022-08-21T05:46:45;18.50;81.80
36710;DHT22;22694;51.040;3.684;2022-08-21T05:49:11;18.50;81.80
36710;DHT22;22694;51.040;3.684;2022-08-21T05:51:39;18.50;81.80
36710;DHT22;22694;51.040;3.684;2022-08-21T05:54:05;18.50;81.80
36710;DHT22;22694;51.040;3.684;2022-08-21T05:56:31;18.50;81.80
36710;DHT22;22694;51.040;3.684;2022-08-21T05:58:57;18.50;81.90
36710;DHT22;22694;51.040;3.684;2022-08-21T06:01:23;18.50;81.90
36710;DHT22;22694;51.040;3.684;2022-08-21T06:03:49;18.50;82.00
36710;DHT22;22694;51.040;3.684;2022-08-21T06:06:14;18.50;82.00
36710;DHT22;22694;51.040;3.684;2022-08-21T06:08:41;18.50;82.00
36710;DHT22;22694;51.040;3.684;2022-08-21T06:11:07;18.50;82.00
36710;DHT22;22694;51.040;3.684;2022-08-21T06:13:34;18.60;84.40
36710;DHT22;22694;51.040;3.684;2022-08-21T06:16:06;18.70;82.80
36710;DHT22;22694;51.040;3.684;2022-08-21T06:18:33;18.60;82.20
36710;DHT22;22694;51.040;3.684;2022-08-21T06:20:59;18.60;82.50
36710;DHT22;22694;51.040;3.684;2022-08-21T06:23:25;18.60;82.80
36710;DHT22;22694;51.040;3.684;2022-08-21T06:25:51;18.50;82.80
36710;DHT22;22694;51.040;3.684;2022-08-21T06:28:16;18.50;83.50
36710;DHT22;22694;51.040;3.684;2022-08-21T06:30:42;18.60;87.80
36710;DHT22;22694;51.040;3.684;2022-08-21T06:33:08;18.90;89.00
36710;DHT22;22694;51.040;3.684;2022-08-21T06:35:34;19.10;88.80
36710;DHT22;22694;51.040;3.684;2022-08-21T06:38:00;19.20;87.70
36710;DHT22;22694;51.040;3.684;2022-08-21T06:40:28;19.20;85.40
36710;DHT22;22694;51.040;3.684;2022-08-21T06:42:53;19.20;83.80
36710;DHT22;22694;51.040;3.684;2022-08-21T06:45:20;19.10;83.40
36710;DHT22;22694;51.040;3.684;2022-08-21T06:47:46;19.00;83.70
36710;DHT22;22694;51.040;3.684;2022-08-21T06:50:11;19.00;84.00
36710;DHT22;22694;51.040;3.684;2022-08-21T06:52:38;19.00;84.30
36710;DHT22;22694;51.040;3.684;2022-08-21T06:55:06;18.90;84.40
36710;DHT22;22694;51.040;3.684;2022-08-21T06:57:33;18.90;84.50
36710;DHT22;22694;51.040;3.684;2022-08-21T06:59:59;19.00;84.70
36710;DHT22;22694;51.040;3.684;2022-08-21T07:02:24;19.00;85.90
36710;DHT22;22694;51.040;3.684;2022-08-21T07:04:50;19.20;87.40
36710;DHT22;22694;51.040;3.684;2022-08-21T07:07:16;19.30;87.50
36710;DHT22;22694;51.040;3.684;2022-08-21T07:09:42;19.50;87.20
36710;DHT22;22694;51.040;3.684;2022-08-21T07:12:08;19.60;86.60
36710;DHT22;22694;51.040;3.684;2022-08-21T07:14:35;19.70;86.10
36710;DHT22;22694;51.040;3.684;2022-08-21T07:17:01;19.90;85.90
36710;DHT22;22694;51.040;3.684;2022-08-21T07:19:26;19.90;85.50
36710;DHT22;22694;51.040;3.684;2022-08-21T07:21:57;20.00;85.40
36710;DHT22;22694;51.040;3.684;2022-08-21T07:24:23;20.00;85.40
36710;DHT22;22694;51.040;3.684;2022-08-21T07:26:48;20.10;85.80
36710;DHT22;22694;51.040;3.684;2022-08-21T07:29:14;20.20;85.90
36710;DHT22;22694;51.040;3.684;2022-08-21T07:31:40;20.20;85.90
36710;DHT22;22694;51.040;3.684;2022-08-21T07:34:05;20.20;85.90
36710;DHT22;22694;51.040;3.684;2022-08-21T07:36:31;20.20;85.30
36710;DHT22;22694;51.040;3.684;2022-08-21T07:38:57;20.20;85.00
36710;DHT22;22694;51.040;3.684;2022-08-21T07:41:26;20.30;84.90
36710;DHT22;22694;51.040;3.684;2022-08-21T07:43:57;20.30;84.70
36710;DHT22;22694;51.040;3.684;2022-08-21T07:46:23;20.30;84.60
36710;DHT22;22694;51.040;3.684;2022-08-21T07:48:49;20.40;84.70
36710;DHT22;22694;51.040;3.684;2022-08-21T07:51:17;20.40;84.90
36710;DHT22;22694;51.040;3.684;2022-08-21T07:53:48;20.40;84.90
36710;DHT22;22694;51.040;3.684;2022-08-21T07:56:15;20.50;84.60
36710;DHT22;22694;51.040;3.684;2022-08-21T07:58:41;20.50;84.20
36710;DHT22;22694;51.040;3.684;2022-08-21T08:01:06;20.60;84.00
36710;DHT22;22694;51.040;3.684;2022-08-21T08:03:33;20.60;83.80
36710;DHT22;22694;51.040;3.684;2022-08-21T08:05:59;20.60;83.70
36710;DHT22;22694;51.040;3.684;2022-08-21T08:08:25;20.60;83.50
36710;DHT22;22694;51.040;3.684;2022-08-21T08:10:51;20.60;83.30
36710;DHT22;22694;51.040;3.684;2022-08-21T08:13:18;20.60;83.20
36710;DHT22;22694;51.040;3.684;2022-08-21T08:15:43;20.60;83.10
36710;DHT22;22694;51.040;3.684;2022-08-21T08:18:09;20.70;83.10
36710;DHT22;22694;51.040;3.684;2022-08-21T08:20:34;20.70;83.10
36710;DHT22;22694;51.040;3.684;2022-08-21T08:23:00;20.70;83.20
36710;DHT22;22694;51.040;3.684;2022-08-21T08:25:27;20.70;83.20
36710;DHT22;22694;51.040;3.684;2022-08-21T08:27:53;20.70;83.20
36710;DHT22;22694;51.040;3.684;2022-08-21T08:30:23;20.80;83.30
36710;DHT22;22694;51.040;3.684;2022-08-21T08:32:49;20.80;83.30
36710;DHT22;22694;51.040;3.684;2022-08-21T08:35:15;20.80;83.30
36710;DHT22;22694;51.040;3.684;2022-08-21T08:37:42;20.80;83.30
36710;DHT22;22694;51.040;3.684;2022-08-21T08:40:18;20.80;83.30
36710;DHT22;22694;51.040;3.684;2022-08-21T08:42:46;20.80;83.30
36710;DHT22;22694;51.040;3.684;2022-08-21T08:45:16;20.80;83.20
36710;DHT22;22694;51.040;3.684;2022-08-21T08:47:55;20.90;83.20
36710;DHT22;22694;51.040;3.684;2022-08-21T08:53:06;20.90;82.90
36710;DHT22;22694;51.040;3.684;2022-08-21T08:55:42;20.90;82.70
36710;DHT22;22694;51.040;3.684;2022-08-21T08:58:32;20.90;82.60
36710;DHT22;22694;51.040;3.684;2022-08-21T09:01:00;20.90;82.60
36710;DHT22;22694;51.040;3.684;2022-08-21T09:03:26;21.00;82.60
36710;DHT22;22694;51.040;3.684;2022-08-21T09:06:03;20.90;82.90
36710;DHT22;22694;51.040;3.684;2022-08-21T09:09:06;20.90;83.10
36710;DHT22;22694;51.040;3.684;2022-08-21T09:11:51;20.80;83.20
36710;DHT22;22694;51.040;3.684;2022-08-21T09:23:08;20.60;83.70
36710;DHT22;22694;51.040;3.684;2022-08-21T09:25:52;20.50;83.70
36710;DHT22;22694;51.040;3.684;2022-08-21T09:28:18;20.50;83.70
36710;DHT22;22694;51.040;3.684;2022-08-21T09:30:44;20.50;83.60
36710;DHT22;22694;51.040;3.684;2022-08-21T09:33:11;20.50;83.70
36710;DHT22;22694;51.040;3.684;2022-08-21T09:35:52;20.50;83.60
36710;DHT22;22694;51.040;3.684;2022-08-21T09:38:51;20.50;83.60
36710;DHT22;22694;51.040;3.684;2022-08-21T09:41:27;20.50;83.60
36710;DHT22;22694;51.040;3.684;2022-08-21T09:43:53;20.50;83.70
36710;DHT22;22694;51.040;3.684;2022-08-21T09:46:22;20.50;83.70
36710;DHT22;22694;51.040;3.684;2022-08-21T09:48:50;20.50;83.50
36710;DHT22;22694;51.040;3.684;2022-08-21T09:51:25;20.50;83.50
36710;DHT22;22694;51.040;3.684;2022-08-21T09:56:26;20.60;83.60
36710;DHT22;22694;51.040;3.684;2022-08-21T09:59:28;20.70;83.50
36710;DHT22;22694;51.040;3.684;2022-08-21T10:01:57;20.80;82.90
36710;DHT22;22694;51.040;3.684;2022-08-21T10:04:31;21.00;82.20
36710;DHT22;22694;51.040;3.684;2022-08-21T10:07:12;21.10;81.30
36710;DHT22;22694;51.040;3.684;2022-08-21T10:09:40;21.20;81.10
36710;DHT22;22694;51.040;3.684;2022-08-21T10:12:15;21.30;81.10
36710;DHT22;22694;51.040;3.684;2022-08-21T10:15:38;21.40;79.50
36710;DHT22;22694;51.040;3.684;2022-08-21T10:20:22;21.50;78.40
36710;DHT22;22694;51.040;3.684;2022-08-21T10:25:19;21.60;78.10
36710;DHT22;22694;51.040;3.684;2022-08-21T10:33:35;21.80;75.80
36710;DHT22;22694;51.040;3.684;2022-08-21T10:36:13;22.00;75.20
36710;DHT22;22694;51.040;3.684;2022-08-21T10:49:40;22.20;74.80
36710;DHT22;22694;51.040;3.684;2022-08-21T10:57:42;22.40;73.50
36710;DHT22;22694;51.040;3.684;2022-08-21T11:00:13;22.50;72.30
36710;DHT22;22694;51.040;3.684;2022-08-21T11:05:32;22.80;75.00
36710;DHT22;22694;51.040;3.684;2022-08-21T11:08:50;22.90;79.40
36710;DHT22;22694;51.040;3.684;2022-08-21T11:11:20;22.90;83.10
36710;DHT22;22694;51.040;3.684;2022-08-21T11:14:04;23.00;83.70
36710;DHT22;22694;51.040;3.684;2022-08-21T11:16:42;23.00;83.00
36710;DHT22;22694;51.040;3.684;2022-08-21T11:19:23;23.10;79.30
36710;DHT22;22694;51.040;3.684;2022-08-21T11:21:58;23.10;78.80
36710;DHT22;22694;51.040;3.684;2022-08-21T11:29:39;23.40;73.30
36710;DHT22;22694;51.040;3.684;2022-08-21T11:35:30;23.50;71.60
36710;DHT22;22694;51.040;3.684;2022-08-21T11:43:40;23.70;73.40
36710;DHT22;22694;51.040;3.684;2022-08-21T11:51:36;23.80;74.40
36710;DHT22;22694;51.040;3.684;2022-08-21T11:56:38;23.90;74.20
36710;DHT22;22694;51.040;3.684;2022-08-21T11:59:14;24.00;74.50
36710;DHT22;22694;51.040;3.684;2022-08-21T12:01:43;24.00;74.50
36710;DHT22;22694;51.040;3.684;2022-08-21T12:04:28;24.10;74.40
36710;DHT22;22694;51.040;3.684;2022-08-21T12:06:54;24.10;74.30
36710;DHT22;22694;51.040;3.684;2022-08-21T12:11:51;24.10;74.60
36710;DHT22;22694;51.040;3.684;2022-08-21T12:14:40;24.20;74.70
36710;DHT22;22694;51.040;3.684;2022-08-21T12:17:07;24.20;74.70
36710;DHT22;22694;51.040;3.684;2022-08-21T12:19:33;24.20;74.60
36710;DHT22;22694;51.040;3.684;2022-08-21T12:22:10;24.10;74.60
36710;DHT22;22694;51.040;3.684;2022-08-21T12:24:44;24.20;74.60
36710;DHT22;22694;51.040;3.684;2022-08-21T12:29:47;24.20;74.50
36710;DHT22;22694;51.040;3.684;2022-08-21T12:34:49;24.20;74.20
36710;DHT22;22694;51.040;3.684;2022-08-21T12:37:39;24.20;74.00
36710;DHT22;22694;51.040;3.684;2022-08-21T12:42:45;24.20;73.70
36710;DHT22;22694;51.040;3.684;2022-08-21T12:45:45;24.30;73.70
36710;DHT22;22694;51.040;3.684;2022-08-21T12:48:33;24.30;73.60
36710;DHT22;22694;51.040;3.684;2022-08-21T12:53:41;24.30;73.60
36710;DHT22;22694;51.040;3.684;2022-08-21T12:56:11;24.30;73.70
36710;DHT22;22694;51.040;3.684;2022-08-21T12:58:41;24.30;73.50
36710;DHT22;22694;51.040;3.684;2022-08-21T13:01:33;24.30;73.30
36710;DHT22;22694;51.040;3.684;2022-08-21T13:04:02;24.30;73.20
36710;DHT22;22694;51.040;3.684;2022-08-21T13:06:36;24.30;73.10
36710;DHT22;22694;51.040;3.684;2022-08-21T13:09:06;24.30;73.20
36710;DHT22;22694;51.040;3.684;2022-08-21T13:11:34;24.30;73.20
36710;DHT22;22694;51.040;3.684;2022-08-21T13:14:02;24.40;72.90
36710;DHT22;22694;51.040;3.684;2022-08-21T13:16:29;24.40;70.80
36710;DHT22;22694;51.040;3.684;2022-08-21T13:19:04;24.40;71.30
36710;DHT22;22694;51.040;3.684;2022-08-21T13:21:41;24.50;71.90
36710;DHT22;22694;51.040;3.684;2022-08-21T13:24:17;24.60;72.30
36710;DHT22;22694;51.040;3.684;2022-08-21T13:26:44;24.60;72.00
36710;DHT22;22694;51.040;3.684;2022-08-21T13:29:11;24.60;72.40
36710;DHT22;22694;51.040;3.684;2022-08-21T13:31:39;24.60;71.80
36710;DHT22;22694;51.040;3.684;2022-08-21T13:34:08;24.70;70.90
36710;DHT22;22694;51.040;3.684;2022-08-21T13:36:39;24.70;70.70
36710;DHT22;22694;51.040;3.684;2022-08-21T13:39:08;24.80;70.50
36710;DHT22;22694;51.040;3.684;2022-08-21T13:41:38;24.80;70.90
36710;DHT22;22694;51.040;3.684;2022-08-21T13:44:14;24.80;71.50
36710;DHT22;22694;51.040;3.684;2022-08-21T13:46:40;24.80;71.70
36710;DHT22;22694;51.040;3.684;2022-08-21T13:49:06;24.80;71.80
36710;DHT22;22694;51.040;3.684;2022-08-21T13:51:35;24.80;71.90
36710;DHT22;22694;51.040;3.684;2022-08-21T13:54:01;24.80;72.00
36710;DHT22;22694;51.040;3.684;2022-08-21T13:56:42;24.80;72.00
36710;DHT22;22694;51.040;3.684;2022-08-21T13:59:08;24.80;71.90
36710;DHT22;22694;51.040;3.684;2022-08-21T14:01:38;24.80;71.90
36710;DHT22;22694;51.040;3.684;2022-08-21T14:04:31;24.70;71.70
36710;DHT22;22694;51.040;3.684;2022-08-21T14:06:57;24.70;71.80
36710;DHT22;22694;51.040;3.684;2022-08-21T14:09:35;24.70;72.00
36710;DHT22;22694;51.040;3.684;2022-08-21T14:12:18;24.70;71.70
36710;DHT22;22694;51.040;3.684;2022-08-21T14:14:45;24.70;71.50
36710;DHT22;22694;51.040;3.684;2022-08-21T14:17:14;24.70;72.00
36710;DHT22;22694;51.040;3.684;2022-08-21T14:19:42;24.70;72.00
36710;DHT22;22694;51.040;3.684;2022-08-21T14:25:00;24.70;71.80
36710;DHT22;22694;51.040;3.684;2022-08-21T14:27:29;24.70;72.00
36710;DHT22;22694;51.040;3.684;2022-08-21T14:30:03;24.70;72.20
36710;DHT22;22694;51.040;3.684;2022-08-21T14:32:38;24.70;72.30
36710;DHT22;22694;51.040;3.684;2022-08-21T14:35:04;24.60;72.30
36710;DHT22;22694;51.040;3.684;2022-08-21T14:37:30;24.60;72.30
36710;DHT22;22694;51.040;3.684;2022-08-21T14:39:55;24.60;72.20
36710;DHT22;22694;51.040;3.684;2022-08-21T14:42:21;24.60;72.00
36710;DHT22;22694;51.040;3.684;2022-08-21T14:44:47;24.60;71.90
36710;DHT22;22694;51.040;3.684;2022-08-21T14:47:13;24.60;71.90
36710;DHT22;22694;51.040;3.684;2022-08-21T14:49:38;24.60;72.00
36710;DHT22;22694;51.040;3.684;2022-08-21T14:52:05;24.50;71.80
36710;DHT22;22694;51.040;3.684;2022-08-21T14:54:31;24.50;71.70
36710;DHT22;22694;51.040;3.684;2022-08-21T14:57:00;24.50;71.60
36710;DHT22;22694;51.040;3.684;2022-08-21T14:59:26;24.50;71.80
36710;DHT22;22694;51.040;3.684;2022-08-21T15:01:52;24.50;71.90
36710;DHT22;22694;51.040;3.684;2022-08-21T15:04:17;24.50;72.70
36710;DHT22;22694;51.040;3.684;2022-08-21T15:06:44;24.50;73.10
36710;DHT22;22694;51.040;3.684;2022-08-21T15:09:09;24.50;73.20
36710;DHT22;22694;51.040;3.684;2022-08-21T15:11:35;24.40;73.10
36710;DHT22;22694;51.040;3.684;2022-08-21T15:14:03;24.40;73.30
36710;DHT22;22694;51.040;3.684;2022-08-21T15:16:29;24.40;72.90
36710;DHT22;22694;51.040;3.684;2022-08-21T15:18:57;24.40;73.10
36710;DHT22;22694;51.040;3.684;2022-08-21T15:21:22;24.40;73.50
36710;DHT22;22694;51.040;3.684;2022-08-21T15:23:48;24.40;73.60
36710;DHT22;22694;51.040;3.684;2022-08-21T15:26:14;24.40;73.80
36710;DHT22;22694;51.040;3.684;2022-08-21T15:28:40;24.40;74.10
36710;DHT22;22694;51.040;3.684;2022-08-21T15:31:06;24.40;73.90
36710;DHT22;22694;51.040;3.684;2022-08-21T15:33:32;24.40;74.70
36710;DHT22;22694;51.040;3.684;2022-08-21T15:35:57;24.40;75.00
36710;DHT22;22694;51.040;3.684;2022-08-21T15:38:23;24.40;75.70
36710;DHT22;22694;51.040;3.684;2022-08-21T15:40:49;24.50;75.40
36710;DHT22;22694;51.040;3.684;2022-08-21T15:43:27;24.40;74.00
36710;DHT22;22694;51.040;3.684;2022-08-21T15:45:53;24.50;74.50
36710;DHT22;22694;51.040;3.684;2022-08-21T15:48:19;24.50;74.80
36710;DHT22;22694;51.040;3.684;2022-08-21T15:50:45;24.50;75.20
36710;DHT22;22694;51.040;3.684;2022-08-21T15:53:12;24.50;75.10
36710;DHT22;22694;51.040;3.684;2022-08-21T15:55:38;24.50;74.80
36710;DHT22;22694;51.040;3.684;2022-08-21T15:58:04;24.50;74.50
36710;DHT22;22694;51.040;3.684;2022-08-21T16:00:32;24.50;74.60
36710;DHT22;22694;51.040;3.684;2022-08-21T16:02:59;24.50;74.70
36710;DHT22;22694;51.040;3.684;2022-08-21T16:05:25;24.50;74.70
36710;DHT22;22694;51.040;3.684;2022-08-21T16:07:51;24.50;74.80
36710;DHT22;22694;51.040;3.684;2022-08-21T16:10:19;24.50;74.80
36710;DHT22;22694;51.040;3.684;2022-08-21T16:13:01;24.40;74.70
36710;DHT22;22694;51.040;3.684;2022-08-21T16:15:28;24.50;75.40
36710;DHT22;22694;51.040;3.684;2022-08-21T16:17:54;24.40;75.40
36710;DHT22;22694;51.040;3.684;2022-08-21T16:20:24;24.40;75.60
36710;DHT22;22694;51.040;3.684;2022-08-21T16:22:52;24.40;75.50
36710;DHT22;22694;51.040;3.684;2022-08-21T16:25:18;24.40;75.70
36710;DHT22;22694;51.040;3.684;2022-08-21T16:27:51;24.40;75.10
36710;DHT22;22694;51.040;3.684;2022-08-21T16:30:18;24.50;75.30
36710;DHT22;22694;51.040;3.684;2022-08-21T16:32:44;24.40;75.60
36710;DHT22;22694;51.040;3.684;2022-08-21T16:35:13;24.40;75.20
36710;DHT22;22694;51.040;3.684;2022-08-21T16:37:39;24.40;75.20
36710;DHT22;22694;51.040;3.684;2022-08-21T16:40:06;24.40;75.50
36710;DHT22;22694;51.040;3.684;2022-08-21T16:42:34;24.40;75.20
36710;DHT22;22694;51.040;3.684;2022-08-21T16:45:01;24.40;75.60
36710;DHT22;22694;51.040;3.684;2022-08-21T16:47:28;24.40;76.00
36710;DHT22;22694;51.040;3.684;2022-08-21T16:49:56;24.40;75.60
36710;DHT22;22694;51.040;3.684;2022-08-21T16:52:22;24.40;73.50
36710;DHT22;22694;51.040;3.684;2022-08-21T16:54:48;24.30;72.40
36710;DHT22;22694;51.040;3.684;2022-08-21T16:57:14;24.30;71.90
36710;DHT22;22694;51.040;3.684;2022-08-21T16:59:40;24.20;71.60
36710;DHT22;22694;51.040;3.684;2022-08-21T17:02:33;24.20;71.60